sensor_id;sensor_type;location;lat;lon;timestamp;P1;durP1;ratioP1;P2;durP2;ratioP2
29688;SDS011;16600;47.444;8.334;2023-10-08T00:01:12;14.38;;;10.85;;
29688;SDS011;16600;47.444;8.334;2023-10-08T00:03:42;12.68;;;11.15;;
29688;SDS011;16600;47.444;8.334;2023-10-08T00:06:15;22.80;;;12.63;;
29688;SDS011;16600;47.444;8.334;2023-10-08T00:08:48;13.25;;;11.73;;
29688;SDS011;16600;47.444;8.334;2023-10-08T00:11:16;17.20;;;12.23;;
29688;SDS011;16600;47.444;8.334;2023-10-08T00:13:42;16.63;;;11.13;;
29688;SDS011;16600;47.444;8.334;2023-10-08T00:16:09;20.40;;;11.73;;
29688;SDS011;16600;47.444;8.334;2023-10-08T00:18:37;14.68;;;10.50;;
29688;SDS011;16600;47.444;8.334;2023-10-08T00:21:04;11.95;;;9.65;;
29688;SDS011;16600;47.444;8.334;2023-10-08T00:23:38;13.27;;;11.35;;
29688;SDS011;16600;47.444;8.334;2023-10-08T00:26:24;25.98;;;17.25;;
29688;SDS011;16600;47.444;8.334;2023-10-08T00:28:56;16.58;;;13.27;;
29688;SDS011;16600;47.444;8.334;2023-10-08T00:31:23;15.23;;;10.73;;
29688;SDS011;16600;47.444;8.334;2023-10-08T00:33:56;18.63;;;11.35;;
29688;SDS011;16600;47.444;8.334;2023-10-08T00:36:22;15.27;;;10.23;;
29688;SDS011;16600;47.444;8.334;2023-10-08T00:38:51;12.07;;;10.23;;
29688;SDS011;16600;47.444;8.334;2023-10-08T00:41:20;14.30;;;10.43;;
29688;SDS011;16600;47.444;8.334;2023-10-08T00:43:53;15.02;;;10.75;;
29688;SDS011;16600;47.444;8.334;2023-10-08T00:46:22;17.40;;;12.48;;
29688;SDS011;16600;47.444;8.334;2023-10-08T00:48:51;18.63;;;12.13;;
29688;SDS011;16600;47.444;8.334;2023-10-08T00:51:21;16.48;;;12.80;;
29688;SDS011;16600;47.444;8.334;2023-10-08T00:53:48;15.77;;;13.63;;
29688;SDS011;16600;47.444;8.334;2023-10-08T00:56:16;17.80;;;14.18;;
29688;SDS011;16600;47.444;8.334;2023-10-08T00:58:45;14.45;;;12.02;;
29688;SDS011;16600;47.444;8.334;2023-10-08T01:01:19;14.55;;;11.77;;
29688;SDS011;16600;47.444;8.334;2023-10-08T01:03:49;13.82;;;10.07;;
29688;SDS011;16600;47.444;8.334;2023-10-08T01:06:16;13.68;;;10.50;;
29688;SDS011;16600;47.444;8.334;2023-10-08T01:08:46;13.10;;;10.52;;
29688;SDS011;16600;47.444;8.334;2023-10-08T01:11:18;14.00;;;9.13;;
29688;SDS011;16600;47.444;8.334;2023-10-08T01:13:47;13.27;;;9.18;;
29688;SDS011;16600;47.444;8.334;2023-10-08T01:16:14;9.60;;;8.05;;
29688;SDS011;16600;47.444;8.334;2023-10-08T01:18:40;11.88;;;9.60;;
29688;SDS011;16600;47.444;8.334;2023-10-08T01:21:16;13.63;;;10.05;;
29688;SDS011;16600;47.444;8.334;2023-10-08T01:23:52;14.27;;;9.80;;
29688;SDS011;16600;47.444;8.334;2023-10-08T01:26:20;16.63;;;11.48;;
29688;SDS011;16600;47.444;8.334;2023-10-08T01:28:48;18.52;;;9.75;;
29688;SDS011;16600;47.444;8.334;2023-10-08T01:31:14;12.95;;;11.05;;
29688;SDS011;16600;47.444;8.334;2023-10-08T01:33:41;15.32;;;10.80;;
29688;SDS011;16600;47.444;8.334;2023-10-08T01:36:24;15.15;;;10.38;;
29688;SDS011;16600;47.444;8.334;2023-10-08T01:38:51;13.27;;;9.95;;
29688;SDS011;16600;47.444;8.334;2023-10-08T01:41:17;11.52;;;9.75;;
29688;SDS011;16600;47.444;8.334;2023-10-08T01:43:51;17.00;;;10.65;;
29688;SDS011;16600;47.444;8.334;2023-10-08T01:46:20;14.23;;;9.43;;
29688;SDS011;16600;47.444;8.334;2023-10-08T01:48:47;14.38;;;9.35;;
29688;SDS011;16600;47.444;8.334;2023-10-08T01:51:18;14.10;;;10.00;;
29688;SDS011;16600;47.444;8.334;2023-10-08T01:54:01;17.77;;;13.23;;
29688;SDS011;16600;47.444;8.334;2023-10-08T01:56:28;16.98;;;13.80;;
29688;SDS011;16600;47.444;8.334;2023-10-08T01:58:55;14.27;;;12.00;;
29688;SDS011;16600;47.444;8.334;2023-10-08T02:01:21;20.27;;;12.63;;
29688;SDS011;16600;47.444;8.334;2023-10-08T02:03:47;19.05;;;12.63;;
29688;SDS011;16600;47.444;8.334;2023-10-08T02:06:13;14.80;;;10.90;;
29688;SDS011;16600;47.444;8.334;2023-10-08T02:08:40;13.23;;;10.43;;
29688;SDS011;16600;47.444;8.334;2023-10-08T02:11:06;18.63;;;11.05;;
29688;SDS011;16600;47.444;8.334;2023-10-08T02:13:34;15.60;;;9.52;;
29688;SDS011;16600;47.444;8.334;2023-10-08T02:16:00;21.85;;;14.82;;
29688;SDS011;16600;47.444;8.334;2023-10-08T02:18:27;16.20;;;12.35;;
29688;SDS011;16600;47.444;8.334;2023-10-08T02:20:55;14.30;;;11.25;;
29688;SDS011;16600;47.444;8.334;2023-10-08T02:23:21;15.48;;;11.35;;
29688;SDS011;16600;47.444;8.334;2023-10-08T02:25:47;15.98;;;10.27;;
29688;SDS011;16600;47.444;8.334;2023-10-08T02:28:13;13.77;;;10.32;;
29688;SDS011;16600;47.444;8.334;2023-10-08T02:30:41;11.18;;;9.98;;
29688;SDS011;16600;47.444;8.334;2023-10-08T02:33:08;12.73;;;9.80;;
29688;SDS011;16600;47.444;8.334;2023-10-08T02:35:44;15.35;;;9.45;;
29688;SDS011;16600;47.444;8.334;2023-10-08T02:38:10;11.85;;;8.65;;
29688;SDS011;16600;47.444;8.334;2023-10-08T02:40:41;14.93;;;8.82;;
29688;SDS011;16600;47.444;8.334;2023-10-08T02:43:12;15.65;;;10.15;;
29688;SDS011;16600;47.444;8.334;2023-10-08T02:45:40;14.43;;;9.73;;
29688;SDS011;16600;47.444;8.334;2023-10-08T02:48:10;11.05;;;8.50;;
29688;SDS011;16600;47.444;8.334;2023-10-08T02:50:39;12.90;;;9.25;;
29688;SDS011;16600;47.444;8.334;2023-10-08T02:53:06;19.80;;;10.07;;
29688;SDS011;16600;47.444;8.334;2023-10-08T02:55:38;16.27;;;10.95;;
29688;SDS011;16600;47.444;8.334;2023-10-08T02:58:10;14.27;;;10.77;;
29688;SDS011;16600;47.444;8.334;2023-10-08T03:00:43;20.15;;;10.98;;
29688;SDS011;16600;47.444;8.334;2023-10-08T03:03:15;12.10;;;9.93;;
29688;SDS011;16600;47.444;8.334;2023-10-08T03:05:51;13.95;;;10.32;;
29688;SDS011;16600;47.444;8.334;2023-10-08T03:08:17;14.90;;;10.03;;
29688;SDS011;16600;47.444;8.334;2023-10-08T03:10:47;14.65;;;10.55;;
29688;SDS011;16600;47.444;8.334;2023-10-08T03:13:29;11.18;;;9.45;;
29688;SDS011;16600;47.444;8.334;2023-10-08T03:15:56;14.48;;;8.93;;
29688;SDS011;16600;47.444;8.334;2023-10-08T03:18:28;16.02;;;10.02;;
29688;SDS011;16600;47.444;8.334;2023-10-08T03:21:17;18.85;;;10.00;;
29688;SDS011;16600;47.444;8.334;2023-10-08T03:23:48;12.63;;;8.63;;
29688;SDS011;16600;47.444;8.334;2023-10-08T03:26:17;11.80;;;9.48;;
29688;SDS011;16600;47.444;8.334;2023-10-08T03:29:04;15.23;;;12.27;;
29688;SDS011;16600;47.444;8.334;2023-10-08T03:31:44;25.27;;;17.45;;
29688;SDS011;16600;47.444;8.334;2023-10-08T03:34:15;15.23;;;12.95;;
29688;SDS011;16600;47.444;8.334;2023-10-08T03:36:43;18.98;;;11.52;;
29688;SDS011;16600;47.444;8.334;2023-10-08T03:39:10;18.92;;;12.85;;
29688;SDS011;16600;47.444;8.334;2023-10-08T03:41:45;18.45;;;11.65;;
29688;SDS011;16600;47.444;8.334;2023-10-08T03:44:29;18.15;;;13.38;;
29688;SDS011;16600;47.444;8.334;2023-10-08T03:46:55;14.02;;;11.10;;
29688;SDS011;16600;47.444;8.334;2023-10-08T03:49:22;12.90;;;11.50;;
29688;SDS011;16600;47.444;8.334;2023-10-08T03:51:49;18.02;;;12.38;;
29688;SDS011;16600;47.444;8.334;2023-10-08T03:54:19;15.30;;;10.50;;
29688;SDS011;16600;47.444;8.334;2023-10-08T03:56:49;16.27;;;11.95;;
29688;SDS011;16600;47.444;8.334;2023-10-08T03:59:16;17.45;;;11.45;;
29688;SDS011;16600;47.444;8.334;2023-10-08T04:03:02;15.53;;;10.67;;
29688;SDS011;16600;47.444;8.334;2023-10-08T04:05:34;22.98;;;11.45;;
29688;SDS011;16600;47.444;8.334;2023-10-08T04:08:15;16.02;;;10.50;;
29688;SDS011;16600;47.444;8.334;2023-10-08T04:11:10;13.75;;;10.82;;
29688;SDS011;16600;47.444;8.334;2023-10-08T04:14:12;18.02;;;11.57;;
29688;SDS011;16600;47.444;8.334;2023-10-08T04:16:38;15.23;;;10.20;;
29688;SDS011;16600;47.444;8.334;2023-10-08T04:19:04;17.42;;;10.18;;
29688;SDS011;16600;47.444;8.334;2023-10-08T04:21:30;11.98;;;10.13;;
29688;SDS011;16600;47.444;8.334;2023-10-08T04:23:59;20.98;;;13.75;;
29688;SDS011;16600;47.444;8.334;2023-10-08T04:26:33;18.83;;;13.10;;
29688;SDS011;16600;47.444;8.334;2023-10-08T04:29:00;16.75;;;13.20;;
29688;SDS011;16600;47.444;8.334;2023-10-08T04:31:32;16.40;;;12.32;;
29688;SDS011;16600;47.444;8.334;2023-10-08T04:34:08;22.05;;;11.98;;
29688;SDS011;16600;47.444;8.334;2023-10-08T04:36:43;15.55;;;12.25;;
29688;SDS011;16600;47.444;8.334;2023-10-08T04:39:11;17.70;;;11.82;;
29688;SDS011;16600;47.444;8.334;2023-10-08T04:41:47;13.10;;;10.27;;
29688;SDS011;16600;47.444;8.334;2023-10-08T04:44:19;14.77;;;10.18;;
29688;SDS011;16600;47.444;8.334;2023-10-08T04:46:47;19.98;;;11.60;;
29688;SDS011;16600;47.444;8.334;2023-10-08T04:49:15;16.65;;;10.43;;
29688;SDS011;16600;47.444;8.334;2023-10-08T04:51:59;18.38;;;10.88;;
29688;SDS011;16600;47.444;8.334;2023-10-08T04:54:25;17.45;;;12.02;;
29688;SDS011;16600;47.444;8.334;2023-10-08T04:56:56;12.23;;;10.50;;
29688;SDS011;16600;47.444;8.334;2023-10-08T04:59:24;14.10;;;11.43;;
29688;SDS011;16600;47.444;8.334;2023-10-08T05:02:03;15.98;;;11.88;;
29688;SDS011;16600;47.444;8.334;2023-10-08T05:04:51;17.98;;;11.20;;
29688;SDS011;16600;47.444;8.334;2023-10-08T05:07:17;14.75;;;10.15;;
29688;SDS011;16600;47.444;8.334;2023-10-08T05:09:47;11.80;;;9.73;;
29688;SDS011;16600;47.444;8.334;2023-10-08T05:12:29;12.82;;;11.25;;
29688;SDS011;16600;47.444;8.334;2023-10-08T05:15:10;14.80;;;10.82;;
29688;SDS011;16600;47.444;8.334;2023-10-08T05:17:46;18.27;;;11.00;;
29688;SDS011;16600;47.444;8.334;2023-10-08T05:20:17;19.95;;;11.10;;
29688;SDS011;16600;47.444;8.334;2023-10-08T05:23:08;13.63;;;9.80;;
29688;SDS011;16600;47.444;8.334;2023-10-08T05:25:58;12.75;;;9.52;;
29688;SDS011;16600;47.444;8.334;2023-10-08T05:28:33;21.85;;;9.60;;
29688;SDS011;16600;47.444;8.334;2023-10-08T05:31:13;15.73;;;11.38;;
29688;SDS011;16600;47.444;8.334;2023-10-08T05:33:45;15.20;;;12.07;;
29688;SDS011;16600;47.444;8.334;2023-10-08T05:36:30;15.55;;;11.32;;
29688;SDS011;16600;47.444;8.334;2023-10-08T05:39:16;14.00;;;12.13;;
29688;SDS011;16600;47.444;8.334;2023-10-08T05:42:06;15.45;;;11.40;;
29688;SDS011;16600;47.444;8.334;2023-10-08T05:44:57;20.27;;;12.18;;
29688;SDS011;16600;47.444;8.334;2023-10-08T05:47:35;17.65;;;12.30;;
29688;SDS011;16600;47.444;8.334;2023-10-08T05:50:02;22.65;;;13.80;;
29688;SDS011;16600;47.444;8.334;2023-10-08T05:52:47;17.38;;;11.70;;
29688;SDS011;16600;47.444;8.334;2023-10-08T05:55:22;18.17;;;12.77;;
29688;SDS011;16600;47.444;8.334;2023-10-08T05:57:52;17.88;;;11.05;;
29688;SDS011;16600;47.444;8.334;2023-10-08T06:00:28;16.88;;;10.68;;
29688;SDS011;16600;47.444;8.334;2023-10-08T06:03:00;14.95;;;10.05;;
29688;SDS011;16600;47.444;8.334;2023-10-08T06:05:35;13.63;;;8.68;;
29688;SDS011;16600;47.444;8.334;2023-10-08T06:08:09;19.40;;;8.90;;
29688;SDS011;16600;47.444;8.334;2023-10-08T06:10:43;16.95;;;8.65;;
29688;SDS011;16600;47.444;8.334;2023-10-08T06:13:20;11.68;;;8.55;;
29688;SDS011;16600;47.444;8.334;2023-10-08T06:16:11;9.98;;;6.97;;
29688;SDS011;16600;47.444;8.334;2023-10-08T06:18:56;15.48;;;7.80;;
29688;SDS011;16600;47.444;8.334;2023-10-08T06:21:23;10.68;;;7.88;;
29688;SDS011;16600;47.444;8.334;2023-10-08T06:23:49;13.20;;;8.43;;
29688;SDS011;16600;47.444;8.334;2023-10-08T06:26:22;12.57;;;8.45;;
29688;SDS011;16600;47.444;8.334;2023-10-08T06:28:51;10.63;;;7.28;;
29688;SDS011;16600;47.444;8.334;2023-10-08T06:31:23;9.65;;;7.68;;
29688;SDS011;16600;47.444;8.334;2023-10-08T06:33:50;8.73;;;7.75;;
29688;SDS011;16600;47.444;8.334;2023-10-08T06:36:16;12.10;;;7.13;;
29688;SDS011;16600;47.444;8.334;2023-10-08T06:38:43;12.55;;;7.55;;
29688;SDS011;16600;47.444;8.334;2023-10-08T06:41:10;11.43;;;7.53;;
29688;SDS011;16600;47.444;8.334;2023-10-08T06:43:40;9.75;;;7.38;;
29688;SDS011;16600;47.444;8.334;2023-10-08T06:46:13;14.25;;;8.23;;
29688;SDS011;16600;47.444;8.334;2023-10-08T06:48:42;9.63;;;7.03;;
29688;SDS011;16600;47.444;8.334;2023-10-08T06:51:09;14.50;;;8.10;;
29688;SDS011;16600;47.444;8.334;2023-10-08T06:53:44;10.38;;;7.82;;
29688;SDS011;16600;47.444;8.334;2023-10-08T06:56:16;11.00;;;8.10;;
29688;SDS011;16600;47.444;8.334;2023-10-08T06:58:43;12.75;;;8.80;;
29688;SDS011;16600;47.444;8.334;2023-10-08T07:01:21;17.80;;;8.88;;
29688;SDS011;16600;47.444;8.334;2023-10-08T07:03:51;10.32;;;8.07;;
29688;SDS011;16600;47.444;8.334;2023-10-08T07:06:21;9.15;;;7.65;;
29688;SDS011;16600;47.444;8.334;2023-10-08T07:08:57;11.95;;;8.07;;
29688;SDS011;16600;47.444;8.334;2023-10-08T07:11:25;11.38;;;7.20;;
29688;SDS011;16600;47.444;8.334;2023-10-08T07:13:52;10.65;;;7.53;;
29688;SDS011;16600;47.444;8.334;2023-10-08T07:16:21;8.98;;;7.25;;
29688;SDS011;16600;47.444;8.334;2023-10-08T07:18:51;16.00;;;8.77;;
29688;SDS011;16600;47.444;8.334;2023-10-08T07:21:18;10.90;;;8.15;;
29688;SDS011;16600;47.444;8.334;2023-10-08T07:23:49;9.38;;;8.05;;
29688;SDS011;16600;47.444;8.334;2023-10-08T07:26:32;11.50;;;8.65;;
29688;SDS011;16600;47.444;8.334;2023-10-08T07:29:02;9.70;;;7.65;;
29688;SDS011;16600;47.444;8.334;2023-10-08T07:31:35;15.93;;;8.95;;
29688;SDS011;16600;47.444;8.334;2023-10-08T07:34:04;13.63;;;8.68;;
29688;SDS011;16600;47.444;8.334;2023-10-08T07:36:52;11.00;;;8.73;;
29688;SDS011;16600;47.444;8.334;2023-10-08T07:39:22;9.43;;;8.55;;
29688;SDS011;16600;47.444;8.334;2023-10-08T07:42:01;11.05;;;8.32;;
29688;SDS011;16600;47.444;8.334;2023-10-08T07:44:36;10.25;;;8.75;;
29688;SDS011;16600;47.444;8.334;2023-10-08T07:47:04;13.88;;;9.65;;
29688;SDS011;16600;47.444;8.334;2023-10-08T07:49:33;10.00;;;8.05;;
29688;SDS011;16600;47.444;8.334;2023-10-08T07:52:01;11.50;;;7.95;;
29688;SDS011;16600;47.444;8.334;2023-10-08T07:54:30;9.82;;;8.27;;
29688;SDS011;16600;47.444;8.334;2023-10-08T07:57:00;10.35;;;8.68;;
29688;SDS011;16600;47.444;8.334;2023-10-08T07:59:41;14.10;;;8.15;;
29688;SDS011;16600;47.444;8.334;2023-10-08T08:02:15;14.05;;;8.95;;
29688;SDS011;16600;47.444;8.334;2023-10-08T08:04:43;14.75;;;8.32;;
29688;SDS011;16600;47.444;8.334;2023-10-08T08:07:12;10.80;;;8.10;;
29688;SDS011;16600;47.444;8.334;2023-10-08T08:09:49;11.75;;;9.20;;
29688;SDS011;16600;47.444;8.334;2023-10-08T08:12:27;8.60;;;7.40;;
29688;SDS011;16600;47.444;8.334;2023-10-08T08:14:58;10.18;;;8.85;;
29688;SDS011;16600;47.444;8.334;2023-10-08T08:17:24;10.35;;;8.57;;
29688;SDS011;16600;47.444;8.334;2023-10-08T08:19:53;12.38;;;9.30;;
29688;SDS011;16600;47.444;8.334;2023-10-08T08:22:20;11.82;;;8.43;;
29688;SDS011;16600;47.444;8.334;2023-10-08T08:24:48;10.20;;;9.00;;
29688;SDS011;16600;47.444;8.334;2023-10-08T08:27:21;9.88;;;8.88;;
29688;SDS011;16600;47.444;8.334;2023-10-08T08:30:10;11.88;;;9.23;;
29688;SDS011;16600;47.444;8.334;2023-10-08T08:32:41;11.60;;;8.85;;
29688;SDS011;16600;47.444;8.334;2023-10-08T08:35:13;11.20;;;9.60;;
29688;SDS011;16600;47.444;8.334;2023-10-08T08:37:42;22.35;;;9.80;;
29688;SDS011;16600;47.444;8.334;2023-10-08T08:40:09;11.25;;;9.35;;
29688;SDS011;16600;47.444;8.334;2023-10-08T08:42:35;14.23;;;9.35;;
29688;SDS011;16600;47.444;8.334;2023-10-08T08:45:02;12.98;;;9.05;;
29688;SDS011;16600;47.444;8.334;2023-10-08T08:47:37;11.18;;;8.10;;
29688;SDS011;16600;47.444;8.334;2023-10-08T08:50:07;14.07;;;9.90;;
29688;SDS011;16600;47.444;8.334;2023-10-08T08:52:39;13.35;;;8.57;;
29688;SDS011;16600;47.444;8.334;2023-10-08T08:55:09;11.10;;;9.05;;
29688;SDS011;16600;47.444;8.334;2023-10-08T09:00:07;13.50;;;9.57;;
29688;SDS011;16600;47.444;8.334;2023-10-08T09:02:37;13.48;;;8.70;;
29688;SDS011;16600;47.444;8.334;2023-10-08T09:05:03;15.07;;;9.40;;
29688;SDS011;16600;47.444;8.334;2023-10-08T09:07:59;14.88;;;8.70;;
29688;SDS011;16600;47.444;8.334;2023-10-08T09:10:28;16.23;;;9.73;;
29688;SDS011;16600;47.444;8.334;2023-10-08T09:12:58;15.70;;;8.93;;
29688;SDS011;16600;47.444;8.334;2023-10-08T09:15:28;12.23;;;9.90;;
29688;SDS011;16600;47.444;8.334;2023-10-08T09:17:56;11.70;;;9.30;;
29688;SDS011;16600;47.444;8.334;2023-10-08T09:20:22;12.98;;;9.77;;
29688;SDS011;16600;47.444;8.334;2023-10-08T09:23:10;16.83;;;9.40;;
29688;SDS011;16600;47.444;8.334;2023-10-08T09:25:40;15.57;;;10.07;;
29688;SDS011;16600;47.444;8.334;2023-10-08T09:28:10;11.35;;;9.60;;
29688;SDS011;16600;47.444;8.334;2023-10-08T09:30:39;13.85;;;8.75;;
29688;SDS011;16600;47.444;8.334;2023-10-08T09:33:11;14.27;;;9.40;;
29688;SDS011;16600;47.444;8.334;2023-10-08T09:35:37;11.95;;;8.70;;
29688;SDS011;16600;47.444;8.334;2023-10-08T09:38:04;10.80;;;8.73;;
29688;SDS011;16600;47.444;8.334;2023-10-08T09:40:41;18.15;;;9.50;;
29688;SDS011;16600;47.444;8.334;2023-10-08T09:43:12;14.82;;;9.10;;
29688;SDS011;16600;47.444;8.334;2023-10-08T09:45:47;14.15;;;8.13;;
29688;SDS011;16600;47.444;8.334;2023-10-08T09:48:15;12.57;;;9.32;;
29688;SDS011;16600;47.444;8.334;2023-10-08T09:50:41;16.38;;;9.15;;
29688;SDS011;16600;47.444;8.334;2023-10-08T09:53:08;11.50;;;7.82;;
29688;SDS011;16600;47.444;8.334;2023-10-08T09:55:53;12.68;;;8.20;;
29688;SDS011;16600;47.444;8.334;2023-10-08T09:58:20;10.35;;;7.80;;
29688;SDS011;16600;47.444;8.334;2023-10-08T10:03:05;14.18;;;7.97;;
29688;SDS011;16600;47.444;8.334;2023-10-08T10:05:34;10.52;;;7.53;;
29688;SDS011;16600;47.444;8.334;2023-10-08T10:08:04;17.95;;;8.23;;
29688;SDS011;16600;47.444;8.334;2023-10-08T10:10:35;12.68;;;6.82;;
29688;SDS011;16600;47.444;8.334;2023-10-08T10:13:08;13.35;;;7.10;;
29688;SDS011;16600;47.444;8.334;2023-10-08T10:15:38;10.15;;;7.00;;
29688;SDS011;16600;47.444;8.334;2023-10-08T10:18:14;11.43;;;6.32;;
29688;SDS011;16600;47.444;8.334;2023-10-08T10:20:46;13.95;;;7.55;;
29688;SDS011;16600;47.444;8.334;2023-10-08T10:26:20;12.00;;;6.45;;
29688;SDS011;16600;47.444;8.334;2023-10-08T10:31:43;10.65;;;6.30;;
29688;SDS011;16600;47.444;8.334;2023-10-08T10:34:16;10.60;;;6.28;;
29688;SDS011;16600;47.444;8.334;2023-10-08T10:36:44;13.32;;;6.85;;
29688;SDS011;16600;47.444;8.334;2023-10-08T10:39:17;10.40;;;6.25;;
29688;SDS011;16600;47.444;8.334;2023-10-08T10:41:52;11.57;;;6.20;;
29688;SDS011;16600;47.444;8.334;2023-10-08T10:44:27;17.98;;;7.25;;
29688;SDS011;16600;47.444;8.334;2023-10-08T10:46:55;11.00;;;6.78;;
29688;SDS011;16600;47.444;8.334;2023-10-08T10:49:42;12.30;;;7.05;;
29688;SDS011;16600;47.444;8.334;2023-10-08T10:52:27;17.27;;;7.65;;
29688;SDS011;16600;47.444;8.334;2023-10-08T10:55:17;10.45;;;6.68;;
29688;SDS011;16600;47.444;8.334;2023-10-08T10:57:54;11.05;;;6.38;;
29688;SDS011;16600;47.444;8.334;2023-10-08T11:00:30;14.88;;;7.97;;
29688;SDS011;16600;47.444;8.334;2023-10-08T11:02:59;16.13;;;6.32;;
29688;SDS011;16600;47.444;8.334;2023-10-08T11:05:34;11.77;;;6.70;;
29688;SDS011;16600;47.444;8.334;2023-10-08T11:08:05;18.50;;;9.68;;
29688;SDS011;16600;47.444;8.334;2023-10-08T11:10:35;16.13;;;8.00;;
29688;SDS011;16600;47.444;8.334;2023-10-08T11:13:05;16.75;;;8.05;;
29688;SDS011;16600;47.444;8.334;2023-10-08T11:15:43;15.68;;;7.43;;
29688;SDS011;16600;47.444;8.334;2023-10-08T11:18:15;17.63;;;8.43;;
29688;SDS011;16600;47.444;8.334;2023-10-08T11:20:42;11.32;;;7.47;;
29688;SDS011;16600;47.444;8.334;2023-10-08T11:23:29;15.63;;;8.50;;
29688;SDS011;16600;47.444;8.334;2023-10-08T11:25:56;12.88;;;7.72;;
29688;SDS011;16600;47.444;8.334;2023-10-08T11:28:33;16.27;;;8.18;;
29688;SDS011;16600;47.444;8.334;2023-10-08T11:31:17;12.95;;;6.68;;
29688;SDS011;16600;47.444;8.334;2023-10-08T11:33:47;8.80;;;5.53;;
29688;SDS011;16600;47.444;8.334;2023-10-08T11:36:22;11.00;;;6.23;;
29688;SDS011;16600;47.444;8.334;2023-10-08T11:38:54;12.18;;;7.07;;
29688;SDS011;16600;47.444;8.334;2023-10-08T11:41:27;13.93;;;6.63;;
29688;SDS011;16600;47.444;8.334;2023-10-08T11:43:54;12.98;;;6.18;;
29688;SDS011;16600;47.444;8.334;2023-10-08T11:46:23;14.00;;;6.60;;
29688;SDS011;16600;47.444;8.334;2023-10-08T11:48:51;13.45;;;7.07;;
29688;SDS011;16600;47.444;8.334;2023-10-08T11:51:18;22.98;;;6.88;;
29688;SDS011;16600;47.444;8.334;2023-10-08T11:53:50;22.95;;;6.38;;
29688;SDS011;16600;47.444;8.334;2023-10-08T11:56:17;13.30;;;5.88;;
29688;SDS011;16600;47.444;8.334;2023-10-08T11:58:47;23.17;;;7.28;;
29688;SDS011;16600;47.444;8.334;2023-10-08T12:01:16;14.80;;;6.47;;
29688;SDS011;16600;47.444;8.334;2023-10-08T12:03:46;10.18;;;6.40;;
29688;SDS011;16600;47.444;8.334;2023-10-08T12:06:12;11.25;;;6.15;;
29688;SDS011;16600;47.444;8.334;2023-10-08T12:08:47;11.63;;;5.88;;
29688;SDS011;16600;47.444;8.334;2023-10-08T12:11:15;11.70;;;5.38;;
29688;SDS011;16600;47.444;8.334;2023-10-08T12:13:47;10.07;;;6.22;;
29688;SDS011;16600;47.444;8.334;2023-10-08T12:16:14;11.73;;;6.03;;
29688;SDS011;16600;47.444;8.334;2023-10-08T12:18:49;14.43;;;6.40;;
29688;SDS011;16600;47.444;8.334;2023-10-08T12:21:19;15.05;;;6.47;;
29688;SDS011;16600;47.444;8.334;2023-10-08T12:23:50;21.38;;;6.32;;
29688;SDS011;16600;47.444;8.334;2023-10-08T12:26:17;16.77;;;6.57;;
29688;SDS011;16600;47.444;8.334;2023-10-08T12:28:47;10.25;;;5.65;;
29688;SDS011;16600;47.444;8.334;2023-10-08T12:31:18;9.15;;;5.80;;
29688;SDS011;16600;47.444;8.334;2023-10-08T12:33:48;11.63;;;5.97;;
29688;SDS011;16600;47.444;8.334;2023-10-08T12:36:26;17.83;;;6.57;;
29688;SDS011;16600;47.444;8.334;2023-10-08T12:38:53;29.58;;;6.47;;
29688;SDS011;16600;47.444;8.334;2023-10-08T12:41:24;16.30;;;6.50;;
29688;SDS011;16600;47.444;8.334;2023-10-08T12:43:52;12.50;;;5.93;;
29688;SDS011;16600;47.444;8.334;2023-10-08T12:46:19;10.05;;;6.38;;
29688;SDS011;16600;47.444;8.334;2023-10-08T12:48:50;9.65;;;5.85;;
29688;SDS011;16600;47.444;8.334;2023-10-08T12:51:20;14.77;;;5.53;;
29688;SDS011;16600;47.444;8.334;2023-10-08T12:53:52;16.67;;;5.75;;
29688;SDS011;16600;47.444;8.334;2023-10-08T12:56:32;12.02;;;6.13;;
29688;SDS011;16600;47.444;8.334;2023-10-08T12:59:01;17.42;;;6.53;;
29688;SDS011;16600;47.444;8.334;2023-10-08T13:01:48;13.65;;;5.80;;
29688;SDS011;16600;47.444;8.334;2023-10-08T13:04:17;11.88;;;5.85;;
29688;SDS011;16600;47.444;8.334;2023-10-08T13:06:51;12.82;;;5.85;;
29688;SDS011;16600;47.444;8.334;2023-10-08T13:09:23;12.23;;;6.53;;
29688;SDS011;16600;47.444;8.334;2023-10-08T13:11:49;25.30;;;5.95;;
29688;SDS011;16600;47.444;8.334;2023-10-08T13:14:16;12.45;;;6.97;;
29688;SDS011;16600;47.444;8.334;2023-10-08T13:16:45;14.88;;;6.43;;
29688;SDS011;16600;47.444;8.334;2023-10-08T13:19:15;8.75;;;5.57;;
29688;SDS011;16600;47.444;8.334;2023-10-08T13:21:44;7.90;;;5.60;;
29688;SDS011;16600;47.444;8.334;2023-10-08T13:24:13;8.15;;;4.90;;
29688;SDS011;16600;47.444;8.334;2023-10-08T13:26:39;8.80;;;5.97;;
29688;SDS011;16600;47.444;8.334;2023-10-08T13:29:12;10.52;;;6.15;;
29688;SDS011;16600;47.444;8.334;2023-10-08T13:31:39;14.77;;;5.93;;
29688;SDS011;16600;47.444;8.334;2023-10-08T13:34:05;13.05;;;5.22;;
29688;SDS011;16600;47.444;8.334;2023-10-08T13:36:35;12.07;;;6.10;;
29688;SDS011;16600;47.444;8.334;2023-10-08T13:39:06;12.63;;;6.60;;
29688;SDS011;16600;47.444;8.334;2023-10-08T13:41:44;19.00;;;6.15;;
29688;SDS011;16600;47.444;8.334;2023-10-08T13:44:13;14.75;;;6.20;;
29688;SDS011;16600;47.444;8.334;2023-10-08T13:46:40;11.10;;;5.18;;
29688;SDS011;16600;47.444;8.334;2023-10-08T13:49:17;12.55;;;6.55;;
29688;SDS011;16600;47.444;8.334;2023-10-08T13:51:47;14.60;;;6.38;;
29688;SDS011;16600;47.444;8.334;2023-10-08T13:54:24;13.73;;;5.32;;
29688;SDS011;16600;47.444;8.334;2023-10-08T13:56:58;17.38;;;5.75;;
29688;SDS011;16600;47.444;8.334;2023-10-08T13:59:27;13.52;;;6.68;;
29688;SDS011;16600;47.444;8.334;2023-10-08T14:02:00;16.13;;;5.95;;
29688;SDS011;16600;47.444;8.334;2023-10-08T14:04:42;11.63;;;5.65;;
29688;SDS011;16600;47.444;8.334;2023-10-08T14:07:15;22.08;;;6.40;;
29688;SDS011;16600;47.444;8.334;2023-10-08T14:09:47;15.70;;;6.50;;
29688;SDS011;16600;47.444;8.334;2023-10-08T14:12:13;13.82;;;6.20;;
29688;SDS011;16600;47.444;8.334;2023-10-08T14:14:40;9.43;;;5.75;;
29688;SDS011;16600;47.444;8.334;2023-10-08T14:17:14;11.38;;;6.03;;
29688;SDS011;16600;47.444;8.334;2023-10-08T14:19:41;8.55;;;6.07;;
29688;SDS011;16600;47.444;8.334;2023-10-08T14:22:25;8.15;;;5.47;;
29688;SDS011;16600;47.444;8.334;2023-10-08T14:24:54;7.25;;;5.65;;
29688;SDS011;16600;47.444;8.334;2023-10-08T14:27:27;12.48;;;6.25;;
29688;SDS011;16600;47.444;8.334;2023-10-08T14:30:04;9.70;;;5.68;;
29688;SDS011;16600;47.444;8.334;2023-10-08T14:32:31;15.10;;;6.13;;
29688;SDS011;16600;47.444;8.334;2023-10-08T14:34:58;10.73;;;5.63;;
29688;SDS011;16600;47.444;8.334;2023-10-08T14:37:43;9.65;;;5.80;;
29688;SDS011;16600;47.444;8.334;2023-10-08T14:40:27;15.88;;;5.63;;
29688;SDS011;16600;47.444;8.334;2023-10-08T14:43:12;11.70;;;5.75;;
29688;SDS011;16600;47.444;8.334;2023-10-08T14:45:41;9.07;;;5.97;;
29688;SDS011;16600;47.444;8.334;2023-10-08T14:48:10;12.57;;;6.00;;
29688;SDS011;16600;47.444;8.334;2023-10-08T14:50:42;13.23;;;6.70;;
29688;SDS011;16600;47.444;8.334;2023-10-08T14:53:08;11.55;;;6.10;;
29688;SDS011;16600;47.444;8.334;2023-10-08T14:55:37;18.17;;;5.95;;
29688;SDS011;16600;47.444;8.334;2023-10-08T14:58:07;11.05;;;5.20;;
29688;SDS011;16600;47.444;8.334;2023-10-08T15:00:39;11.73;;;5.35;;
29688;SDS011;16600;47.444;8.334;2023-10-08T15:03:07;10.90;;;6.13;;
29688;SDS011;16600;47.444;8.334;2023-10-08T15:05:34;12.60;;;6.25;;
29688;SDS011;16600;47.444;8.334;2023-10-08T15:08:02;9.60;;;5.72;;
29688;SDS011;16600;47.444;8.334;2023-10-08T15:10:30;11.73;;;5.13;;